Terminal Aerodrome Forecast
Issued by NWS

Home | Current Version | Previous Version | Text Only | Print | Product List | Glossary On
Versions: 1 2 3 4 5 6 7 8 9 10 11 12 13 14 15 16 17 18 19 20 21 22 23
000
FTUS42 KMLB 060520
TAFFPR
TAF
KFPR 060520Z 0606/0706 29004KT P6SM SKC
     FM061400 30009KT P6SM FEW040
     FM061600 31011G17KT P6SM FEW050
     FM062300 VRB04KT P6SM SKC=

USA.gov is the U.S. government's official web portal to all federal, state and local government web resources and services.